createdAt,value
2023-05-19T00:00:58.408Z,8.39
2023-05-19T00:02:02.758Z,8.39
2023-05-19T00:03:21.082Z,8.38
2023-05-19T00:04:24.268Z,8.37
2023-05-19T00:05:28.445Z,8.37
2023-05-19T00:06:32.698Z,8.36
2023-05-19T00:07:36.886Z,8.35
2023-05-19T00:08:41.121Z,8.35
2023-05-19T00:09:45.435Z,8.34
2023-05-19T00:10:49.641Z,8.33
2023-05-19T00:11:53.980Z,8.32
2023-05-19T00:12:58.178Z,8.32
2023-05-19T00:14:02.423Z,8.31
2023-05-19T00:15:06.755Z,8.30
2023-05-19T00:16:11.094Z,8.28
2023-05-19T00:17:15.243Z,8.27
2023-05-19T00:18:19.508Z,8.27
2023-05-19T00:19:23.930Z,8.25
2023-05-19T00:20:28.045Z,8.24
2023-05-19T00:21:32.309Z,8.23
2023-05-19T00:22:36.642Z,8.21
2023-05-19T00:23:40.875Z,8.20
2023-05-19T00:24:51.147Z,8.19
2023-05-19T00:26:07.972Z,8.19
2023-05-19T00:27:11.168Z,8.21
2023-05-19T00:28:15.442Z,8.23
2023-05-19T00:29:19.619Z,8.25
2023-05-19T00:30:23.884Z,8.27
2023-05-19T00:31:28.237Z,8.28
2023-05-19T00:32:32.447Z,8.29
2023-05-19T00:33:36.765Z,8.29
2023-05-19T00:34:40.981Z,8.29
2023-05-19T00:35:45.322Z,8.29
2023-05-19T00:36:49.545Z,8.27
2023-05-19T00:37:53.810Z,8.25
2023-05-19T00:38:58.041Z,8.23
2023-05-19T00:40:02.308Z,8.21
2023-05-19T00:41:06.550Z,8.19
2023-05-19T00:42:10.778Z,8.16
2023-05-19T00:43:15.031Z,8.12
2023-05-19T00:44:19.396Z,8.08
2023-05-19T00:45:23.647Z,8.03
2023-05-19T00:46:27.890Z,7.98
2023-05-19T00:47:32.186Z,7.95
2023-05-19T00:48:36.405Z,7.92
2023-05-19T00:49:40.676Z,7.90
2023-05-19T00:50:45.037Z,7.88
2023-05-19T00:51:49.308Z,7.85
2023-05-19T00:52:53.567Z,7.84
2023-05-19T00:53:57.786Z,7.81
2023-05-19T00:55:02.108Z,7.78
2023-05-19T00:56:06.310Z,7.75
2023-05-19T00:57:10.548Z,7.73
2023-05-19T00:58:14.768Z,7.71
2023-05-19T00:59:19.047Z,7.66
2023-05-19T01:00:23.285Z,7.62
2023-05-19T01:01:27.675Z,7.59
2023-05-19T01:02:31.845Z,7.56
2023-05-19T01:03:36.125Z,7.52
2023-05-19T01:04:40.316Z,7.50
2023-05-19T01:05:44.540Z,7.48
2023-05-19T01:06:48.882Z,7.45
2023-05-19T01:07:53.054Z,7.42
2023-05-19T01:08:57.286Z,7.41
2023-05-19T01:10:01.544Z,7.39
2023-05-19T01:11:05.789Z,7.37
2023-05-19T01:12:10.130Z,7.36
2023-05-19T01:13:14.316Z,7.34
2023-05-19T01:14:18.616Z,7.33
2023-05-19T01:15:22.812Z,7.33
2023-05-19T01:16:27.176Z,7.32
2023-05-19T01:17:31.506Z,7.32
2023-05-19T01:18:35.757Z,7.31
2023-05-19T01:19:39.953Z,7.31
2023-05-19T01:20:44.170Z,7.31
2023-05-19T01:21:48.370Z,7.32
2023-05-19T01:22:52.604Z,7.32
2023-05-19T01:23:56.870Z,7.32
2023-05-19T01:25:01.121Z,7.31
2023-05-19T01:26:05.306Z,7.31
2023-05-19T01:27:09.542Z,7.31
2023-05-19T01:28:13.770Z,7.31
2023-05-19T01:29:18.002Z,7.31
2023-05-19T01:30:22.301Z,7.33
2023-05-19T01:31:26.620Z,7.34
2023-05-19T01:32:30.850Z,7.37
2023-05-19T01:33:34.985Z,7.40
2023-05-19T01:34:39.304Z,7.43
2023-05-19T01:35:43.665Z,7.45
2023-05-19T01:36:47.961Z,7.48
2023-05-19T01:37:52.152Z,7.52
2023-05-19T01:38:56.447Z,7.56
2023-05-19T01:40:00.654Z,7.60
2023-05-19T01:41:04.941Z,7.64
2023-05-19T01:42:09.135Z,7.69
2023-05-19T01:43:13.513Z,7.73
2023-05-19T01:44:17.622Z,7.77
2023-05-19T01:45:21.969Z,7.81
2023-05-19T01:46:26.248Z,7.85
2023-05-19T01:47:33.431Z,7.88
2023-05-19T01:48:36.725Z,7.91
2023-05-19T01:49:40.953Z,7.95
2023-05-19T01:50:45.257Z,7.98
2023-05-19T01:51:49.412Z,8.01
2023-05-19T01:52:53.744Z,8.03
2023-05-19T01:53:58.019Z,8.04
2023-05-19T01:55:02.245Z,8.06
2023-05-19T01:56:06.472Z,8.06
2023-05-19T01:57:10.721Z,8.05
2023-05-19T01:58:14.954Z,8.02
2023-05-19T01:59:19.177Z,7.99
2023-05-19T02:00:23.392Z,7.97
2023-05-19T02:01:27.759Z,7.96
2023-05-19T02:02:31.973Z,7.93
2023-05-19T02:03:36.245Z,7.89
2023-05-19T02:04:40.553Z,7.87
2023-05-19T02:05:44.754Z,7.85
2023-05-19T02:06:48.982Z,7.83
2023-05-19T02:07:53.239Z,7.82
2023-05-19T02:08:57.475Z,7.81
2023-05-19T02:10:01.825Z,7.81
2023-05-19T02:11:06.155Z,7.81
2023-05-19T02:12:10.364Z,7.81
2023-05-19T02:13:14.624Z,7.81
2023-05-19T02:14:18.774Z,7.80
2023-05-19T02:15:23.056Z,7.80
2023-05-19T02:16:27.506Z,7.80
2023-05-19T02:17:31.624Z,7.78
2023-05-19T02:18:35.825Z,7.75
2023-05-19T02:19:40.123Z,7.71
2023-05-19T02:20:44.319Z,7.66
2023-05-19T02:21:48.631Z,7.61
2023-05-19T02:22:52.802Z,7.56
2023-05-19T02:23:57.051Z,7.52
2023-05-19T02:25:01.290Z,7.47
2023-05-19T02:26:05.530Z,7.41
2023-05-19T02:27:09.881Z,7.35
2023-05-19T02:28:14.034Z,7.30
2023-05-19T02:29:18.270Z,7.25
2023-05-19T02:30:22.562Z,7.19
2023-05-19T02:31:26.874Z,7.13
2023-05-19T02:32:31.062Z,7.09
2023-05-19T02:33:35.225Z,7.04
2023-05-19T02:34:39.560Z,7.00
2023-05-19T02:35:43.707Z,6.97
2023-05-19T02:36:48.069Z,6.94
2023-05-19T02:37:52.236Z,6.91
2023-05-19T02:38:56.449Z,6.87
2023-05-19T02:40:00.702Z,6.84
2023-05-19T02:41:04.868Z,6.81
2023-05-19T02:42:09.038Z,6.78
2023-05-19T02:43:13.360Z,6.75
2023-05-19T02:44:17.498Z,6.72
2023-05-19T02:45:21.761Z,6.69
2023-05-19T02:46:25.995Z,6.67
2023-05-19T02:47:30.283Z,6.65
2023-05-19T02:48:34.403Z,6.63
2023-05-19T02:49:38.664Z,6.61
2023-05-19T02:50:42.971Z,6.61
2023-05-19T02:51:47.131Z,6.61
2023-05-19T02:52:51.458Z,6.61
2023-05-19T02:53:55.668Z,6.62
2023-05-19T02:55:05.951Z,6.64
2023-05-19T02:56:08.863Z,6.64
2023-05-19T02:57:13.006Z,6.65
2023-05-19T02:58:17.260Z,6.65
2023-05-19T02:59:21.939Z,6.65
2023-05-19T03:00:25.676Z,6.66
2023-05-19T03:01:29.932Z,6.68
2023-05-19T03:02:34.148Z,6.68
2023-05-19T03:03:38.465Z,6.70
2023-05-19T03:04:42.636Z,6.70
2023-05-19T03:05:46.844Z,6.70
2023-05-19T03:06:51.103Z,6.70
2023-05-19T03:07:55.339Z,6.69
2023-05-19T03:08:59.463Z,6.70
2023-05-19T03:10:03.862Z,6.69
2023-05-19T03:11:08.135Z,6.69
2023-05-19T03:12:12.256Z,6.68
2023-05-19T03:13:16.502Z,6.67
2023-05-19T03:14:20.889Z,6.66
2023-05-19T03:15:24.986Z,6.65
2023-05-19T03:16:29.289Z,6.65
2023-05-19T03:17:33.724Z,6.65
2023-05-19T03:18:37.922Z,6.65
2023-05-19T03:19:42.087Z,6.64
2023-05-19T03:20:46.282Z,6.64
2023-05-19T03:21:50.415Z,6.64
2023-05-19T03:22:54.712Z,6.62
2023-05-19T03:23:58.940Z,6.62
2023-05-19T03:25:03.180Z,6.62
2023-05-19T03:26:07.403Z,6.62
2023-05-19T03:27:11.679Z,6.63
2023-05-19T03:28:15.870Z,6.64
2023-05-19T03:29:20.100Z,6.66
2023-05-19T03:30:24.331Z,6.67
2023-05-19T03:31:28.534Z,6.69
2023-05-19T03:32:32.876Z,6.71
2023-05-19T03:33:37.019Z,6.72
2023-05-19T03:34:41.206Z,6.73
2023-05-19T03:35:45.451Z,6.73
2023-05-19T03:36:49.602Z,6.74
2023-05-19T03:37:53.889Z,6.76
2023-05-19T03:38:58.083Z,6.77
2023-05-19T03:40:02.391Z,6.78
2023-05-19T03:41:06.581Z,6.79
2023-05-19T03:42:10.897Z,6.79
2023-05-19T03:43:15.190Z,6.80
2023-05-19T03:44:19.352Z,6.82
2023-05-19T03:45:23.599Z,6.84
2023-05-19T03:46:28.001Z,6.85
2023-05-19T03:47:32.056Z,6.86
2023-05-19T03:48:36.297Z,6.87
2023-05-19T03:49:40.529Z,6.89
2023-05-19T03:50:44.772Z,6.90
2023-05-19T03:51:49.019Z,6.91
2023-05-19T03:52:53.130Z,6.93
2023-05-19T03:53:57.429Z,6.95
2023-05-19T03:55:01.676Z,6.96
2023-05-19T03:56:05.966Z,6.98
2023-05-19T03:57:10.160Z,7.02
2023-05-19T03:58:14.534Z,7.05
2023-05-19T03:59:18.678Z,7.09
2023-05-19T04:00:23.010Z,7.12
2023-05-19T04:01:27.201Z,7.15
2023-05-19T04:02:31.717Z,7.19
2023-05-19T04:03:35.864Z,7.22
2023-05-19T04:04:40.065Z,7.26
2023-05-19T04:05:44.261Z,7.30
2023-05-19T04:06:48.502Z,7.33
2023-05-19T04:07:52.833Z,7.37
2023-05-19T04:08:57.114Z,7.39
2023-05-19T04:10:01.377Z,7.43
2023-05-19T04:11:05.613Z,7.46
2023-05-19T04:12:09.838Z,7.49
2023-05-19T04:13:14.253Z,7.53
2023-05-19T04:14:18.428Z,7.58
2023-05-19T04:15:22.642Z,7.61
2023-05-19T04:16:26.946Z,7.65
2023-05-19T04:17:31.235Z,7.70
2023-05-19T04:18:35.531Z,7.75
2023-05-19T04:19:39.686Z,7.81
2023-05-19T04:20:43.940Z,7.85
2023-05-19T04:21:48.179Z,7.89
2023-05-19T04:22:53.320Z,7.92
2023-05-19T04:23:57.219Z,7.95
2023-05-19T04:25:01.517Z,7.98
2023-05-19T04:26:05.740Z,8.01
2023-05-19T04:27:10.012Z,8.04
2023-05-19T04:28:14.181Z,8.08
2023-05-19T04:29:18.764Z,8.10
2023-05-19T04:30:22.893Z,8.11
2023-05-19T04:31:27.098Z,8.12
2023-05-19T04:32:31.340Z,8.14
2023-05-19T04:33:35.647Z,8.15
2023-05-19T04:34:40.012Z,8.17
2023-05-19T04:35:44.204Z,8.18
2023-05-19T04:36:49.203Z,8.19
2023-05-19T04:37:52.705Z,8.18
2023-05-19T04:38:57.067Z,8.18
2023-05-19T04:40:01.309Z,8.19
2023-05-19T04:41:05.523Z,8.21
2023-05-19T04:42:09.837Z,8.22
2023-05-19T04:43:14.140Z,8.24
2023-05-19T04:44:18.584Z,8.25
2023-05-19T04:45:22.625Z,8.26
2023-05-19T04:46:26.928Z,8.26
2023-05-19T04:47:31.129Z,8.28
2023-05-19T04:48:35.349Z,8.29
2023-05-19T04:49:39.683Z,8.31
2023-05-19T04:50:43.883Z,8.32
2023-05-19T04:51:48.121Z,8.34
2023-05-19T04:52:52.263Z,8.36
2023-05-19T04:53:56.556Z,8.37
2023-05-19T04:55:00.875Z,8.39
2023-05-19T04:56:05.072Z,8.40
2023-05-19T04:57:09.370Z,8.42
2023-05-19T04:58:13.597Z,8.45
2023-05-19T04:59:17.925Z,8.47
2023-05-19T05:00:22.191Z,8.49
2023-05-19T05:01:26.635Z,8.51
2023-05-19T05:02:30.642Z,8.53
2023-05-19T05:03:35.111Z,8.55
2023-05-19T05:04:39.101Z,8.56
2023-05-19T05:05:43.262Z,8.58
2023-05-19T05:06:47.602Z,8.59
2023-05-19T05:07:51.859Z,8.62
2023-05-19T05:08:56.095Z,8.66
2023-05-19T05:10:00.337Z,8.69
2023-05-19T05:11:04.594Z,8.72
2023-05-19T05:12:08.871Z,8.76
2023-05-19T05:13:13.105Z,8.79
2023-05-19T05:14:17.323Z,8.81
2023-05-19T05:15:21.689Z,8.83
2023-05-19T05:16:26.008Z,8.84
2023-05-19T05:17:30.234Z,8.86
2023-05-19T05:18:34.511Z,8.87
2023-05-19T05:19:38.836Z,8.89
2023-05-19T05:20:43.073Z,8.92
2023-05-19T05:21:47.213Z,8.94
2023-05-19T05:22:51.547Z,8.96
2023-05-19T05:23:55.737Z,8.99
2023-05-19T05:25:00.022Z,9.03
2023-05-19T05:26:04.298Z,9.06
2023-05-19T05:27:08.490Z,9.10
2023-05-19T05:28:12.771Z,9.14
2023-05-19T05:29:17.005Z,9.20
2023-05-19T05:30:21.373Z,9.25
2023-05-19T05:31:25.592Z,9.31
2023-05-19T05:32:29.973Z,9.36
2023-05-19T05:33:34.166Z,9.41
2023-05-19T05:34:38.397Z,9.43
2023-05-19T05:35:42.652Z,9.45
2023-05-19T05:36:46.912Z,9.47
2023-05-19T05:37:52.120Z,9.49
2023-05-19T05:38:56.020Z,9.52
2023-05-19T05:40:00.320Z,9.57
2023-05-19T05:41:04.550Z,9.63
2023-05-19T05:42:08.872Z,9.69
2023-05-19T05:43:13.170Z,9.76
2023-05-19T05:44:17.366Z,9.81
2023-05-19T05:45:27.660Z,9.87
2023-05-19T05:46:30.572Z,9.96
2023-05-19T05:47:34.823Z,10.02
2023-05-19T05:48:38.963Z,10.08
2023-05-19T05:49:43.350Z,10.12
2023-05-19T05:50:47.639Z,10.17
2023-05-19T05:52:04.820Z,10.24
2023-05-19T05:52:56.230Z,10.31
2023-05-19T05:54:00.539Z,10.38
2023-05-19T05:55:04.819Z,10.43
2023-05-19T05:56:12.076Z,10.49
2023-05-19T05:57:15.639Z,10.55
2023-05-19T05:58:19.906Z,10.61
2023-05-19T05:59:24.083Z,10.65
2023-05-19T06:00:28.437Z,10.68
2023-05-19T06:01:35.437Z,10.73
2023-05-19T06:02:37.182Z,10.79
2023-05-19T06:03:41.331Z,10.87
2023-05-19T06:04:45.687Z,10.96
2023-05-19T06:05:50.005Z,11.03
2023-05-19T06:06:54.301Z,11.08
2023-05-19T06:07:58.603Z,11.14
2023-05-19T06:09:02.884Z,11.21
2023-05-19T06:10:07.255Z,11.28
2023-05-19T06:11:11.476Z,11.31
2023-05-19T06:12:15.794Z,11.35
2023-05-19T06:13:20.071Z,11.40
2023-05-19T06:14:24.402Z,11.44
2023-05-19T06:15:28.757Z,11.50
2023-05-19T06:16:33.183Z,11.55
2023-05-19T06:17:37.460Z,11.61
2023-05-19T06:18:41.775Z,11.67
2023-05-19T06:19:46.127Z,11.72
2023-05-19T06:20:50.487Z,11.78
2023-05-19T06:21:54.826Z,11.85
2023-05-19T06:22:59.150Z,11.90
2023-05-19T06:24:03.316Z,11.93
2023-05-19T06:25:07.684Z,11.96
2023-05-19T06:26:12.112Z,12.01
2023-05-19T06:27:16.388Z,12.06
2023-05-19T06:28:20.750Z,12.12
2023-05-19T06:29:25.120Z,12.19
2023-05-19T06:30:29.482Z,12.26
2023-05-19T06:31:33.875Z,12.33
2023-05-19T06:32:38.105Z,12.41
2023-05-19T06:33:42.492Z,12.48
2023-05-19T06:34:46.835Z,12.56
2023-05-19T06:35:51.169Z,12.63
2023-05-19T06:36:55.502Z,12.70
2023-05-19T06:37:59.842Z,12.77
2023-05-19T06:39:04.145Z,12.85
2023-05-19T06:40:08.525Z,12.94
2023-05-19T06:41:12.849Z,13.01
2023-05-19T06:42:17.260Z,13.08
2023-05-19T06:43:21.567Z,13.16
2023-05-19T06:44:25.952Z,13.23
2023-05-19T06:45:30.305Z,13.30
2023-05-19T06:46:34.721Z,13.34
2023-05-19T06:47:39.019Z,13.40
2023-05-19T06:48:43.420Z,13.46
2023-05-19T06:49:47.784Z,13.50
2023-05-19T06:50:52.132Z,13.55
2023-05-19T06:51:56.527Z,13.59
2023-05-19T06:53:00.864Z,13.65
2023-05-19T06:54:05.251Z,13.72
2023-05-19T06:55:09.559Z,13.83
2023-05-19T06:56:13.923Z,13.95
2023-05-19T06:57:18.337Z,14.04
2023-05-19T06:58:22.728Z,14.12
2023-05-19T06:59:27.005Z,14.18
2023-05-19T07:00:31.448Z,14.24
2023-05-19T07:01:35.667Z,14.31
2023-05-19T07:02:40.085Z,14.36
2023-05-19T07:03:44.470Z,14.38
2023-05-19T07:04:48.760Z,14.42
2023-05-19T07:05:53.112Z,14.45
2023-05-19T07:06:58.569Z,14.47
2023-05-19T07:08:02.549Z,14.52
2023-05-19T07:09:06.840Z,14.57
2023-05-19T07:10:11.200Z,14.61
2023-05-19T07:11:15.591Z,14.64
2023-05-19T07:12:19.995Z,14.64
2023-05-19T07:13:26.617Z,14.66
2023-05-19T07:14:28.594Z,14.66
2023-05-19T07:15:32.896Z,14.67
2023-05-19T07:16:37.335Z,14.67
2023-05-19T07:17:41.596Z,14.66
2023-05-19T07:18:46.038Z,14.69
2023-05-19T07:19:50.384Z,14.72
2023-05-19T07:20:54.800Z,14.73
2023-05-19T07:21:59.195Z,14.74
2023-05-19T07:23:03.542Z,14.79
2023-05-19T07:24:10.833Z,14.85
2023-05-19T07:25:14.351Z,14.91
2023-05-19T07:26:18.717Z,14.95
2023-05-19T07:27:22.996Z,14.97
2023-05-19T07:28:27.375Z,14.99
2023-05-19T07:29:31.631Z,15.02
2023-05-19T07:30:36.070Z,14.95
2023-05-19T07:31:40.385Z,14.96
2023-05-19T07:32:44.895Z,15.01
2023-05-19T07:33:49.254Z,15.06
2023-05-19T07:34:53.509Z,15.10
2023-05-19T07:35:57.900Z,15.11
2023-05-19T07:37:02.226Z,15.10
2023-05-19T07:38:06.613Z,15.08
2023-05-19T07:39:11.273Z,15.11
2023-05-19T07:40:15.390Z,15.15
2023-05-19T07:41:19.864Z,15.16
2023-05-19T07:42:24.209Z,15.22
2023-05-19T07:43:28.566Z,15.21
2023-05-19T07:44:33.102Z,15.27
2023-05-19T07:45:37.437Z,15.33
2023-05-19T07:46:41.912Z,15.40
2023-05-19T07:47:46.183Z,15.39
2023-05-19T07:48:50.637Z,15.37
2023-05-19T07:50:01.041Z,15.42
2023-05-19T07:51:04.021Z,15.49
2023-05-19T07:52:08.484Z,15.52
2023-05-19T07:53:12.797Z,15.57
2023-05-19T07:54:17.234Z,15.60
2023-05-19T07:55:21.503Z,15.65
2023-05-19T07:56:25.931Z,15.69
2023-05-19T07:57:30.403Z,15.70
2023-05-19T07:58:34.737Z,15.70
2023-05-19T07:59:39.212Z,15.72
2023-05-19T08:00:43.601Z,15.71
2023-05-19T08:01:48.011Z,15.75
2023-05-19T08:02:52.538Z,15.74
2023-05-19T08:03:56.897Z,15.75
2023-05-19T08:05:01.203Z,15.76
2023-05-19T08:06:05.663Z,15.78
2023-05-19T08:07:10.004Z,15.78
2023-05-19T08:08:17.383Z,15.79
2023-05-19T08:09:20.948Z,15.81
2023-05-19T08:10:25.255Z,15.83
2023-05-19T08:11:29.647Z,15.87
2023-05-19T08:12:34.072Z,15.88
2023-05-19T08:13:38.471Z,15.91
2023-05-19T08:14:42.872Z,15.94
2023-05-19T08:15:47.158Z,15.98
2023-05-19T08:16:51.664Z,16.02
2023-05-19T08:17:58.948Z,16.06
2023-05-19T08:19:02.586Z,16.08
2023-05-19T08:20:06.743Z,16.10
2023-05-19T08:21:11.187Z,16.15
2023-05-19T08:22:15.530Z,16.22
2023-05-19T08:23:19.842Z,16.24
2023-05-19T08:24:38.349Z,16.27
2023-05-19T08:25:41.448Z,16.32
2023-05-19T08:26:45.759Z,16.31
2023-05-19T08:27:50.206Z,16.33
2023-05-19T08:28:54.609Z,16.37
2023-05-19T08:29:59.056Z,16.38
2023-05-19T08:31:03.367Z,16.40
2023-05-19T08:32:07.677Z,16.44
2023-05-19T08:33:12.157Z,16.45
2023-05-19T08:34:16.443Z,16.42
2023-05-19T08:35:23.874Z,16.36
2023-05-19T08:36:27.388Z,16.37
2023-05-19T08:37:34.023Z,16.36
2023-05-19T08:38:36.209Z,16.36
2023-05-19T08:39:40.552Z,16.37
2023-05-19T08:40:44.940Z,16.38
2023-05-19T08:41:49.300Z,16.43
2023-05-19T08:42:53.677Z,16.49
2023-05-19T08:43:57.975Z,16.54
2023-05-19T08:45:02.500Z,16.59
2023-05-19T08:46:06.848Z,16.66
2023-05-19T08:47:11.212Z,16.73
2023-05-19T08:48:15.619Z,16.79
2023-05-19T08:49:19.892Z,16.85
2023-05-19T08:50:24.366Z,16.85
2023-05-19T08:51:28.742Z,16.89
2023-05-19T08:52:33.142Z,16.91
2023-05-19T08:53:37.561Z,16.93
2023-05-19T08:54:41.845Z,16.94
2023-05-19T08:55:46.356Z,16.93
2023-05-19T08:56:50.637Z,16.94
2023-05-19T08:57:55.210Z,16.98
2023-05-19T08:58:59.466Z,17.02
2023-05-19T09:00:03.914Z,17.05
2023-05-19T09:01:08.386Z,17.06
2023-05-19T09:02:12.628Z,17.07
2023-05-19T09:03:23.284Z,17.11
2023-05-19T09:04:21.550Z,17.12
2023-05-19T09:05:25.815Z,17.16
2023-05-19T09:06:30.246Z,17.21
2023-05-19T09:07:34.656Z,17.13
2023-05-19T09:08:39.274Z,17.17
2023-05-19T09:09:43.568Z,17.25
2023-05-19T09:10:47.982Z,17.26
2023-05-19T09:11:52.305Z,17.36
2023-05-19T09:12:56.693Z,17.45
2023-05-19T09:14:01.109Z,17.55
2023-05-19T09:15:05.521Z,17.61
2023-05-19T09:16:10.031Z,17.65
2023-05-19T09:17:14.444Z,17.68
2023-05-19T09:18:18.728Z,17.71
2023-05-19T09:19:23.216Z,17.72
2023-05-19T09:20:27.386Z,17.72
2023-05-19T09:21:31.898Z,17.65
2023-05-19T09:22:36.192Z,17.58
2023-05-19T09:23:40.614Z,17.55
2023-05-19T09:24:45.015Z,17.50
2023-05-19T09:25:49.416Z,17.51
2023-05-19T09:26:53.749Z,17.51
2023-05-19T09:27:58.084Z,17.48
2023-05-19T09:29:02.521Z,17.51
2023-05-19T09:30:06.830Z,17.54
2023-05-19T09:31:11.289Z,17.57
2023-05-19T09:32:15.732Z,17.60
2023-05-19T09:33:20.057Z,17.61
2023-05-19T09:34:24.373Z,17.58
2023-05-19T09:35:28.703Z,17.59
2023-05-19T09:36:33.101Z,17.63
2023-05-19T09:37:37.528Z,17.65
2023-05-19T09:38:44.897Z,17.68
2023-05-19T09:39:48.408Z,17.67
2023-05-19T09:40:52.711Z,17.66
2023-05-19T09:41:57.128Z,17.72
2023-05-19T09:43:01.540Z,17.80
2023-05-19T09:44:05.853Z,17.86
2023-05-19T09:45:24.384Z,17.90
2023-05-19T09:46:27.732Z,17.94
2023-05-19T09:47:31.889Z,17.95
2023-05-19T09:48:36.253Z,17.95
2023-05-19T09:49:40.533Z,17.97
2023-05-19T09:50:44.882Z,17.98
2023-05-19T09:51:49.321Z,18.01
2023-05-19T09:52:53.634Z,18.05
2023-05-19T09:54:12.052Z,18.07
2023-05-19T09:55:15.417Z,18.10
2023-05-19T09:56:19.747Z,18.14
2023-05-19T09:57:24.194Z,18.19
2023-05-19T09:58:28.504Z,18.25
2023-05-19T09:59:34.106Z,18.30
2023-05-19T10:00:37.343Z,18.34
2023-05-19T10:01:41.719Z,18.39
2023-05-19T10:02:46.027Z,18.40
2023-05-19T10:03:50.374Z,18.39
2023-05-19T10:04:54.786Z,18.41
2023-05-19T10:05:59.117Z,18.46
2023-05-19T10:07:03.480Z,18.41
2023-05-19T10:08:07.865Z,18.35
2023-05-19T10:09:12.200Z,18.31
2023-05-19T10:10:16.745Z,18.33
2023-05-19T10:11:21.010Z,18.36
2023-05-19T10:12:25.459Z,18.34
2023-05-19T10:13:29.804Z,18.37
2023-05-19T10:14:34.165Z,18.41
2023-05-19T10:15:49.918Z,18.44
2023-05-19T10:16:43.049Z,18.49
2023-05-19T10:17:47.457Z,18.53
2023-05-19T10:18:51.803Z,18.49
2023-05-19T10:19:56.200Z,18.34
2023-05-19T10:21:00.587Z,18.28
2023-05-19T10:22:04.895Z,18.29
2023-05-19T10:23:09.447Z,18.31
2023-05-19T10:24:13.845Z,18.35
2023-05-19T10:25:18.155Z,18.39
2023-05-19T10:26:22.549Z,18.41
2023-05-19T10:27:26.945Z,18.45
2023-05-19T10:28:31.407Z,18.46
2023-05-19T10:29:35.729Z,18.51
2023-05-19T10:30:40.130Z,18.54
2023-05-19T10:31:44.484Z,18.59
2023-05-19T10:32:48.863Z,18.63
2023-05-19T10:33:53.302Z,18.63
2023-05-19T10:34:57.724Z,18.65
2023-05-19T10:36:02.279Z,18.69
2023-05-19T10:37:06.653Z,18.73
2023-05-19T10:38:11.130Z,18.77
2023-05-19T10:39:15.399Z,18.82
2023-05-19T10:40:19.891Z,18.86
2023-05-19T10:41:24.282Z,18.93
2023-05-19T10:42:28.594Z,18.93
2023-05-19T10:43:33.050Z,18.96
2023-05-19T10:44:37.369Z,19.01
2023-05-19T10:45:41.763Z,19.05
2023-05-19T10:46:46.207Z,19.09
2023-05-19T10:47:50.507Z,19.16
2023-05-19T10:48:54.950Z,19.18
2023-05-19T10:49:59.408Z,19.25
2023-05-19T10:51:03.930Z,19.38
2023-05-19T10:52:08.198Z,19.44
2023-05-19T10:53:12.538Z,19.41
2023-05-19T10:54:17.017Z,19.25
2023-05-19T10:55:21.433Z,19.02
2023-05-19T10:56:25.716Z,18.86
2023-05-19T10:57:30.147Z,18.66
2023-05-19T10:58:34.613Z,18.57
2023-05-19T10:59:39.019Z,18.52
2023-05-19T11:00:43.418Z,18.49
2023-05-19T11:01:47.888Z,18.44
2023-05-19T11:02:52.340Z,18.46
2023-05-19T11:03:56.606Z,18.49
2023-05-19T11:05:01.094Z,18.52
2023-05-19T11:06:08.504Z,18.53
2023-05-19T11:07:12.120Z,18.54
2023-05-19T11:08:16.446Z,18.54
2023-05-19T11:09:31.159Z,18.58
2023-05-19T11:10:25.299Z,18.65
2023-05-19T11:11:29.558Z,18.66
2023-05-19T11:12:33.914Z,18.71
2023-05-19T11:13:38.358Z,18.75
2023-05-19T11:14:42.799Z,18.78
2023-05-19T11:15:47.132Z,18.85
2023-05-19T11:16:51.703Z,18.92
2023-05-19T11:17:56.058Z,19.01
2023-05-19T11:19:06.426Z,19.09
2023-05-19T11:20:09.301Z,19.16
2023-05-19T11:21:13.848Z,19.24
2023-05-19T11:22:18.093Z,19.30
2023-05-19T11:23:22.645Z,19.34
2023-05-19T11:24:40.911Z,19.38
2023-05-19T11:25:44.330Z,19.41
2023-05-19T11:26:48.686Z,19.47
2023-05-19T11:27:52.975Z,19.53
2023-05-19T11:28:57.441Z,19.57
2023-05-19T11:30:02.213Z,19.63
2023-05-19T11:31:06.374Z,19.67
2023-05-19T11:32:10.917Z,19.66
2023-05-19T11:33:21.209Z,19.59
2023-05-19T11:34:24.196Z,19.51
2023-05-19T11:35:28.550Z,19.33
2023-05-19T11:36:32.915Z,19.19
2023-05-19T11:37:37.291Z,19.00
2023-05-19T11:38:41.672Z,18.96
2023-05-19T11:39:46.032Z,18.98
2023-05-19T11:40:50.415Z,19.02
2023-05-19T11:42:08.798Z,19.00
2023-05-19T11:43:12.429Z,18.97
2023-05-19T11:44:16.666Z,18.95
2023-05-19T11:45:21.017Z,19.02
2023-05-19T11:46:25.757Z,19.14
2023-05-19T11:48:00.068Z,19.33
2023-05-19T11:48:47.329Z,19.47
2023-05-19T11:49:51.620Z,19.59
2023-05-19T11:50:55.997Z,19.69
2023-05-19T11:52:01.518Z,19.76
2023-05-19T11:53:11.545Z,19.80
2023-05-19T11:54:14.753Z,19.94
2023-05-19T11:55:19.096Z,20.06
2023-05-19T11:56:23.608Z,20.03
2023-05-19T11:57:47.052Z,20.00
2023-05-19T11:58:48.193Z,19.93
2023-05-19T11:59:51.696Z,19.88
2023-05-19T12:00:56.044Z,19.81
2023-05-19T12:02:00.521Z,19.78
2023-05-19T12:03:04.966Z,19.65
2023-05-19T12:04:09.211Z,19.56
2023-05-19T12:05:13.723Z,19.51
2023-05-19T12:06:18.057Z,19.54
2023-05-19T12:07:22.502Z,19.67
2023-05-19T12:08:26.826Z,19.88
2023-05-19T12:09:31.206Z,20.16
2023-05-19T12:10:35.661Z,20.33
2023-05-19T12:11:40.108Z,20.40
2023-05-19T12:12:44.457Z,20.35
2023-05-19T12:13:48.952Z,20.30
2023-05-19T12:14:53.596Z,20.30
2023-05-19T12:17:25.182Z,20.27
2023-05-19T12:18:29.464Z,20.12
2023-05-19T12:19:33.912Z,20.02
2023-05-19T12:20:38.294Z,19.92
2023-05-19T12:21:42.710Z,19.84
2023-05-19T12:22:47.123Z,19.77
2023-05-19T12:23:51.449Z,19.71
2023-05-19T12:24:55.798Z,19.70
2023-05-19T12:26:00.292Z,19.69
2023-05-19T12:27:04.674Z,19.72
2023-05-19T12:28:09.126Z,19.77
2023-05-19T12:29:13.459Z,19.84
2023-05-19T12:30:17.996Z,19.91
2023-05-19T12:31:22.465Z,20.00
2023-05-19T12:32:26.829Z,20.04
2023-05-19T12:33:32.512Z,20.01
2023-05-19T12:34:35.611Z,19.98
2023-05-19T12:35:39.877Z,19.90
2023-05-19T12:36:44.319Z,19.74
2023-05-19T12:38:02.904Z,19.58
2023-05-19T12:39:09.037Z,19.52
2023-05-19T12:40:12.463Z,19.56
2023-05-19T12:41:16.856Z,19.63
2023-05-19T12:42:21.284Z,19.68
2023-05-19T12:43:25.593Z,19.73
2023-05-19T12:44:33.075Z,19.82
2023-05-19T12:45:36.627Z,19.90
2023-05-19T12:46:40.977Z,19.94
2023-05-19T12:47:45.517Z,19.99
2023-05-19T12:48:49.780Z,19.93
2023-05-19T12:49:54.180Z,19.88
2023-05-19T12:51:04.553Z,19.90
2023-05-19T12:52:12.749Z,19.95
2023-05-19T12:53:12.078Z,19.92
2023-05-19T12:54:16.522Z,19.90
2023-05-19T12:55:20.813Z,19.84
2023-05-19T12:56:39.189Z,19.78
2023-05-19T12:57:42.442Z,19.72
2023-05-19T12:58:46.936Z,19.70
2023-05-19T12:59:51.224Z,19.65
2023-05-19T13:00:55.739Z,19.58
2023-05-19T13:02:00.001Z,19.58
2023-05-19T13:03:04.666Z,19.56
2023-05-19T13:04:08.971Z,19.51
2023-05-19T13:05:13.165Z,19.41
2023-05-19T13:06:17.537Z,19.33
2023-05-19T13:07:21.968Z,19.28
2023-05-19T13:08:26.556Z,19.26
2023-05-19T13:09:30.781Z,19.25
2023-05-19T13:10:35.481Z,19.27
2023-05-19T13:11:39.708Z,19.29
2023-05-19T13:12:44.028Z,19.33
2023-05-19T13:13:48.472Z,19.34
2023-05-19T13:14:54.874Z,19.37
2023-05-19T13:15:57.355Z,19.43
2023-05-19T13:17:01.727Z,19.52
2023-05-19T13:18:09.223Z,19.55
2023-05-19T13:19:24.351Z,19.56
2023-05-19T13:20:17.088Z,19.55
2023-05-19T13:21:21.571Z,19.53
2023-05-19T13:22:28.957Z,19.49
2023-05-19T13:23:32.610Z,19.44
2023-05-19T13:24:36.845Z,19.41
2023-05-19T13:25:41.338Z,19.40
2023-05-19T13:26:45.696Z,19.42
2023-05-19T13:27:50.135Z,19.46
2023-05-19T13:28:54.626Z,19.49
2023-05-19T13:29:59.107Z,19.50
2023-05-19T13:31:03.505Z,19.49
2023-05-19T13:32:07.837Z,19.44
2023-05-19T13:33:26.318Z,19.35
2023-05-19T13:34:29.757Z,19.24
2023-05-19T13:35:34.183Z,19.18
2023-05-19T13:36:38.628Z,19.14
2023-05-19T13:37:43.047Z,19.11
2023-05-19T13:38:47.367Z,19.12
2023-05-19T13:39:57.723Z,19.12
2023-05-19T13:41:00.904Z,19.10
2023-05-19T13:42:05.348Z,19.07
2023-05-19T13:43:09.824Z,19.04
2023-05-19T13:44:14.097Z,19.00
2023-05-19T13:45:32.579Z,18.96
2023-05-19T13:46:44.821Z,18.91
2023-05-19T13:47:40.427Z,18.89
2023-05-19T13:48:44.744Z,18.87
2023-05-19T13:49:49.197Z,18.84
2023-05-19T13:50:53.614Z,18.84
2023-05-19T13:51:58.033Z,18.84
2023-05-19T13:53:02.270Z,18.85
2023-05-19T13:54:06.809Z,18.84
2023-05-19T13:55:11.106Z,18.80
2023-05-19T13:56:15.520Z,18.79
2023-05-19T13:57:19.973Z,18.77
2023-05-19T13:58:24.351Z,18.76
2023-05-19T13:59:28.700Z,18.74
2023-05-19T14:00:33.583Z,18.75
2023-05-19T14:01:37.582Z,18.80
2023-05-19T14:02:41.990Z,18.86
2023-05-19T14:03:46.544Z,18.91
2023-05-19T14:04:50.833Z,18.97
2023-05-19T14:05:55.247Z,19.04